Time;durP1;ratioP1;P1;durP2;ratioP2;P2;SDS_P1;SDS_P2;PMS_P1;PMS_P2;Temp;Humidity;BMP_temperature;BMP_pressure;BME280_temperature;BME280_humidity;BME280_pressure;Samples;Min_cycle;Max_cycle;Signal;HPM_P1;HPM_P2
2024/01/05 00:01:48;;;;;;;4.13;3.70;;;;;;;4.84;100.00;152605.47;4991247;28;20472;-85
2024/01/05 00:04:14;;;;;;;5.03;3.43;;;;;;;4.82;100.00;152600.28;4999427;28;20457;-85
2024/01/05 00:06:41;;;;;;;6.60;4.97;;;;;;;4.80;100.00;152596.44;5008295;28;20940;-85
2024/01/05 00:09:07;;;;;;;5.10;3.73;;;;;;;4.81;100.00;152597.72;5005465;28;20460;-85
2024/01/05 00:11:34;;;;;;;7.07;3.50;;;;;;;4.84;100.00;152606.72;5006857;28;20534;-85
2024/01/05 00:14:00;;;;;;;4.10;3.43;;;;;;;4.84;100.00;152606.72;5003030;28;20543;-84
2024/01/05 00:16:27;;;;;;;5.20;3.50;;;;;;;4.83;100.00;152604.16;5012561;28;20865;-85
2024/01/05 00:18:55;;;;;;;5.40;3.90;;;;;;;4.82;100.00;152601.56;5007722;28;20456;-85
2024/01/05 00:21:22;;;;;;;7.10;4.43;;;;;;;4.82;100.00;152601.56;4995546;28;20546;-84
2024/01/05 00:23:49;;;;;;;5.30;4.07;;;;;;;4.82;100.00;152601.56;5002838;28;20468;-85
2024/01/05 00:26:15;;;;;;;6.10;4.07;;;;;;;4.79;100.00;152593.84;5016959;28;20547;-84
2024/01/05 00:28:42;;;;;;;5.00;3.77;;;;;;;4.78;100.00;152590.00;4989512;28;20456;-85
2024/01/05 00:31:10;;;;;;;4.93;4.47;;;;;;;4.75;100.00;152583.56;4991285;28;20480;-84
2024/01/05 00:33:37;;;;;;;8.77;4.70;;;;;;;4.72;100.00;152574.50;5006422;28;20530;-84
2024/01/05 00:36:05;;;;;;;6.40;5.17;;;;;;;4.69;100.00;152568.06;5008332;28;20463;-85
2024/01/05 00:38:32;;;;;;;7.63;5.13;;;;;;;4.69;100.00;152568.06;5009500;28;20950;-85
2024/01/05 00:40:58;;;;;;;6.60;4.57;;;;;;;4.67;100.00;152562.94;4998564;28;20926;-84
2024/01/05 00:43:25;;;;;;;6.97;5.60;;;;;;;4.68;100.00;152564.22;5004894;28;20453;-85
2024/01/05 00:45:51;;;;;;;7.43;4.17;;;;;;;4.68;100.00;152565.53;5006328;28;20457;-85
2024/01/05 00:48:18;;;;;;;6.10;4.40;;;;;;;4.67;100.00;152562.94;5023414;28;20959;-85
2024/01/05 00:50:44;;;;;;;8.50;5.20;;;;;;;4.66;100.00;152559.09;4991754;28;20447;-85
2024/01/05 00:53:12;;;;;;;4.90;4.30;;;;;;;4.65;100.00;152556.50;5006538;28;20809;-85
2024/01/05 00:55:39;;;;;;;6.20;5.37;;;;;;;4.64;100.00;152555.19;4993137;28;20460;-85
2024/01/05 00:58:05;;;;;;;7.37;5.20;;;;;;;4.63;100.00;152552.59;4974775;28;20476;-85
2024/01/05 01:00:32;;;;;;;4.40;4.00;;;;;;;4.59;100.00;152541.03;4984984;28;20450;-85
2024/01/05 01:02:58;;;;;;;5.57;4.90;;;;;;;4.59;100.00;152541.03;4999360;28;20826;-85
2024/01/05 01:05:25;;;;;;;6.07;4.40;;;;;;;4.58;100.00;152539.72;5000327;28;20493;-85
2024/01/05 01:07:51;;;;;;;6.20;4.70;;;;;;;4.58;100.00;152538.47;5009952;28;20459;-85
2024/01/05 01:10:19;;;;;;;8.63;4.80;;;;;;;4.57;100.00;152537.19;4987660;28;20510;-85
2024/01/05 01:12:46;;;;;;;6.30;4.63;;;;;;;4.57;100.00;152535.88;5004316;28;20548;-85
2024/01/05 01:15:12;;;;;;;8.13;4.63;;;;;;;4.56;100.00;152534.59;4989811;28;20472;-85
2024/01/05 01:17:39;;;;;;;6.97;4.70;;;;;;;4.57;100.00;152537.19;4988898;28;20990;-85
2024/01/05 01:20:07;;;;;;;6.73;4.43;;;;;;;4.58;100.00;152539.72;5006408;28;20468;-85
2024/01/05 01:22:32;;;;;;;7.17;4.93;;;;;;;4.61;100.00;152546.16;4991231;28;20978;-85
2024/01/05 01:24:59;;;;;;;5.43;3.67;;;;;;;4.64;100.00;152553.91;5009705;28;20476;-85
2024/01/05 01:27:27;;;;;;;4.93;2.60;;;;;;;4.63;100.00;152552.59;5006864;28;20210;-85
2024/01/05 01:29:53;;;;;;;6.90;3.20;;;;;;;4.66;100.00;152560.34;5007236;28;20963;-85
2024/01/05 01:32:20;;;;;;;6.67;2.87;;;;;;;4.69;100.00;152566.78;4991267;28;20827;-85
2024/01/05 01:34:46;;;;;;;3.83;2.60;;;;;;;4.68;100.00;152565.53;5006596;28;20475;-85
2024/01/05 01:37:13;;;;;;;3.60;2.93;;;;;;;4.69;100.00;152568.06;5002731;28;21054;-85
2024/01/05 01:39:40;;;;;;;4.17;2.40;;;;;;;4.71;100.00;152571.97;5008737;28;20862;-85
2024/01/05 01:42:06;;;;;;;3.40;2.60;;;;;;;4.72;100.00;152575.81;4988730;28;20997;-85
2024/01/05 01:44:34;;;;;;;2.77;2.20;;;;;;;4.72;100.00;152574.50;4985931;28;20567;-86
2024/01/05 01:47:00;;;;;;;9.30;3.10;;;;;;;4.75;100.00;152582.25;4990262;28;20479;-85
2024/01/05 01:49:28;;;;;;;4.10;2.30;;;;;;;4.78;100.00;152590.00;4992791;28;20440;-85
2024/01/05 01:51:55;;;;;;;6.93;2.17;;;;;;;4.78;100.00;152590.00;4994493;28;20436;-85
2024/01/05 01:54:21;;;;;;;3.47;2.27;;;;;;;4.80;100.00;152596.44;5009879;28;20464;-85
2024/01/05 01:56:49;;;;;;;2.97;2.40;;;;;;;4.84;100.00;152605.47;4991962;28;20479;-85
2024/01/05 01:59:16;;;;;;;3.53;1.67;;;;;;;4.84;100.00;152606.72;5012006;28;20433;-85
2024/01/05 02:01:44;;;;;;;3.37;1.87;;;;;;;4.88;100.00;152615.75;5011313;28;21033;-85
2024/01/05 02:04:14;;;;;;;3.07;1.67;;;;;;;4.89;100.00;152619.66;5001906;28;20991;-85
2024/01/05 02:06:43;;;;;;;4.47;1.80;;;;;;;4.91;100.00;152624.78;5020978;28;20897;-86
2024/01/05 02:09:10;;;;;;;3.60;1.80;;;;;;;4.93;100.00;152629.94;5013884;28;20455;-85
2024/01/05 02:11:51;;;;;;;3.27;1.63;;;;;;;4.95;100.00;152632.53;5009387;28;20563;-85
2024/01/05 02:14:17;;;;;;;3.63;2.03;;;;;;;4.96;100.00;152635.06;4997549;28;20464;-85
2024/01/05 02:16:45;;;;;;;2.30;1.70;;;;;;;4.96;100.00;152635.06;5011700;28;20452;-85
2024/01/05 02:19:12;;;;;;;2.70;2.17;;;;;;;4.97;100.00;152637.69;5009226;28;20441;-85
2024/01/05 02:21:40;;;;;;;3.03;1.93;;;;;;;4.96;100.00;152635.06;4982691;28;20468;-85
2024/01/05 02:24:08;;;;;;;1.70;1.40;;;;;;;4.92;100.00;152627.34;5019351;28;20452;-85
2024/01/05 02:26:35;;;;;;;5.23;1.87;;;;;;;4.91;100.00;152624.78;5011788;28;20890;-85
2024/01/05 02:29:02;;;;;;;5.63;2.30;;;;;;;4.90;100.00;152622.19;4992074;28;20465;-85
2024/01/05 02:31:29;;;;;;;2.40;1.77;;;;;;;4.87;100.00;152614.47;5009643;28;20869;-85
2024/01/05 02:33:56;;;;;;;4.20;1.87;;;;;;;4.87;100.00;152614.47;5009144;28;20476;-85
2024/01/05 02:36:22;;;;;;;3.50;2.17;;;;;;;4.87;100.00;152614.47;4993643;28;20822;-85
2024/01/05 02:38:49;;;;;;;2.63;1.47;;;;;;;4.87;100.00;152614.47;5009774;28;20523;-85
2024/01/05 02:41:16;;;;;;;2.63;1.90;;;;;;;4.86;100.00;152611.91;4989886;28;20925;-85
2024/01/05 02:43:43;;;;;;;4.20;2.03;;;;;;;4.86;100.00;152611.91;5009646;28;20456;-85
2024/01/05 02:46:09;;;;;;;3.40;1.77;;;;;;;4.83;100.00;152604.16;5004181;28;20456;-85
2024/01/05 02:48:36;;;;;;;2.27;1.97;;;;;;;4.83;100.00;152602.88;5008496;28;20472;-85
2024/01/05 02:51:02;;;;;;;2.80;2.50;;;;;;;4.82;100.00;152601.56;4992246;28;20519;-85
2024/01/05 02:53:29;;;;;;;5.90;3.20;;;;;;;4.79;100.00;152593.84;4990136;28;20464;-85
2024/01/05 02:55:56;;;;;;;4.93;2.27;;;;;;;4.76;100.00;152586.16;5014610;28;20449;-85
2024/01/05 02:58:23;;;;;;;4.60;2.10;;;;;;;4.73;100.00;152578.41;5002152;28;20825;-85
2024/01/05 03:00:50;;;;;;;3.60;2.50;;;;;;;4.73;100.00;152577.13;5010480;28;20443;-85
2024/01/05 03:03:17;;;;;;;3.90;2.03;;;;;;;4.74;100.00;152580.97;5010302;28;20472;-85
2024/01/05 03:05:43;;;;;;;2.43;1.70;;;;;;;4.75;100.00;152583.56;4997465;28;20480;-85
2024/01/05 03:08:10;;;;;;;1.93;1.53;;;;;;;4.75;100.00;152583.56;4991669;28;20551;-85
2024/01/05 03:10:36;;;;;;;2.93;2.00;;;;;;;4.75;100.00;152583.56;5008384;28;20469;-85
2024/01/05 03:13:03;;;;;;;2.20;1.80;;;;;;;4.78;100.00;152591.28;5007479;28;20448;-85
2024/01/05 03:15:31;;;;;;;2.50;1.90;;;;;;;4.78;100.00;152591.28;5005499;28;20582;-85
2024/01/05 03:17:58;;;;;;;5.30;2.60;;;;;;;4.78;100.00;152591.28;4988132;28;20874;-85
2024/01/05 03:20:25;;;;;;;2.47;2.00;;;;;;;4.77;100.00;152588.69;5001089;28;20551;-85
2024/01/05 03:22:51;;;;;;;3.30;2.07;;;;;;;4.79;100.00;152593.84;5005301;28;20553;-85
2024/01/05 03:25:21;;;;;;;1.90;1.60;;;;;;;4.78;100.00;152591.28;4973832;28;20437;-85
2024/01/05 03:27:48;;;;;;;4.33;2.00;;;;;;;4.79;100.00;152593.84;4988047;28;20496;-85
2024/01/05 03:30:14;;;;;;;2.10;1.37;;;;;;;4.80;100.00;152596.44;4990103;28;20456;-85
2024/01/05 03:32:43;;;;;;;5.67;1.97;;;;;;;4.83;100.00;152602.88;5009424;28;20449;-85
2024/01/05 03:35:09;;;;;;;2.33;1.50;;;;;;;4.82;100.00;152601.56;5008974;28;20472;-85
2024/01/05 03:37:36;;;;;;;3.40;1.60;;;;;;;4.81;100.00;152599.03;4991178;28;20460;-85
2024/01/05 03:40:02;;;;;;;2.23;1.53;;;;;;;4.83;100.00;152604.16;4989915;28;20460;-84
2024/01/05 03:42:29;;;;;;;2.47;1.53;;;;;;;4.82;100.00;152600.28;4999819;28;20462;-85
2024/01/05 03:44:56;;;;;;;2.00;1.60;;;;;;;4.82;100.00;152601.56;4997201;28;20445;-85
2024/01/05 03:47:22;;;;;;;2.53;1.50;;;;;;;4.81;100.00;152597.72;5008643;28;20515;-85
2024/01/05 03:49:50;;;;;;;2.80;1.63;;;;;;;4.80;100.00;152596.44;4985348;28;20446;-85
2024/01/05 03:52:16;;;;;;;5.30;1.80;;;;;;;4.80;100.00;152596.44;5002037;28;20467;-85
2024/01/05 03:54:43;;;;;;;3.07;2.10;;;;;;;4.79;100.00;152593.84;4989645;28;20476;-85
2024/01/05 03:57:10;;;;;;;2.60;1.57;;;;;;;4.82;100.00;152601.56;4992108;28;20440;-85
2024/01/05 03:59:36;;;;;;;3.50;1.20;;;;;;;4.84;100.00;152605.47;5006899;28;20461;-85
2024/01/05 04:02:03;;;;;;;2.40;1.20;;;;;;;4.85;100.00;152609.31;5003999;28;20814;-85
2024/01/05 04:04:29;;;;;;;1.70;1.40;;;;;;;4.86;100.00;152610.63;5007326;28;20448;-85
2024/01/05 04:06:57;;;;;;;1.70;1.07;;;;;;;4.87;100.00;152614.47;5008418;28;20535;-85
2024/01/05 04:09:24;;;;;;;1.90;1.13;;;;;;;4.88;100.00;152617.06;5016829;28;20484;-85
2024/01/05 04:11:52;;;;;;;1.77;1.00;;;;;;;4.88;100.00;152617.06;5020861;28;20443;-85
2024/01/05 04:14:18;;;;;;;4.57;1.73;;;;;;;4.87;100.00;152614.47;5007817;28;20923;-85
2024/01/05 04:16:45;;;;;;;3.80;1.30;;;;;;;4.87;100.00;152614.47;4992430;28;20455;-85
2024/01/05 04:19:11;;;;;;;2.00;1.17;;;;;;;4.88;100.00;152615.75;5007180;28;20444;-85
2024/01/05 04:21:38;;;;;;;2.27;1.27;;;;;;;4.90;100.00;152622.19;5012520;28;20542;-85
2024/01/05 04:24:06;;;;;;;1.83;1.30;;;;;;;4.91;100.00;152624.78;5008706;28;20460;-85
2024/01/05 04:26:33;;;;;;;3.13;1.00;;;;;;;4.92;100.00;152627.34;5007151;28;20535;-85
2024/01/05 04:29:00;;;;;;;1.87;1.40;;;;;;;4.94;100.00;152631.22;5005668;28;20456;-85
2024/01/05 04:31:26;;;;;;;2.10;1.43;;;;;;;4.97;100.00;152638.97;4998897;28;20448;-85
2024/01/05 04:33:54;;;;;;;1.70;1.00;;;;;;;4.98;100.00;152641.53;5009376;28;20540;-85
2024/01/05 04:36:21;;;;;;;1.90;1.00;;;;;;;4.99;100.00;152642.81;4991684;28;20447;-85
2024/01/05 04:38:48;;;;;;;2.13;1.00;;;;;;;5.00;100.00;152645.41;4997408;28;20456;-85
2024/01/05 04:41:17;;;;;;;2.50;0.90;;;;;;;5.00;100.00;152646.72;5003409;28;20481;-85
2024/01/05 04:43:44;;;;;;;5.00;1.37;;;;;;;5.02;100.00;152651.84;4952830;28;20457;-85
2024/01/05 04:46:10;;;;;;;2.30;1.20;;;;;;;5.04;100.00;152657.00;4970591;28;20458;-85
2024/01/05 04:48:37;;;;;;;1.97;1.27;;;;;;;5.06;100.00;152660.84;4989275;28;20449;-85
2024/01/05 04:51:04;;;;;;;2.37;1.10;;;;;;;5.07;100.00;152664.75;4970239;28;20437;-85
2024/01/05 04:53:30;;;;;;;1.70;1.00;;;;;;;5.08;100.00;152667.34;4970494;28;20971;-85
2024/01/05 04:55:57;;;;;;;1.70;0.87;;;;;;;5.06;100.00;152662.16;4989735;28;20469;-85
2024/01/05 04:58:25;;;;;;;2.33;1.23;;;;;;;5.06;100.00;152662.16;4963994;28;20456;-85
2024/01/05 05:00:51;;;;;;;2.80;1.50;;;;;;;5.05;100.00;152658.31;4987784;28;20465;-85
2024/01/05 05:03:18;;;;;;;3.80;0.93;;;;;;;5.04;100.00;152657.00;4987527;28;20539;-85
2024/01/05 05:05:45;;;;;;;1.97;1.10;;;;;;;5.06;100.00;152660.84;4984394;28;20462;-85
2024/01/05 05:08:13;;;;;;;1.50;1.00;;;;;;;5.06;100.00;152660.84;4970554;28;20899;-85
2024/01/05 05:10:39;;;;;;;1.50;1.00;;;;;;;5.05;100.00;152658.31;4987743;28;20548;-85
2024/01/05 05:13:06;;;;;;;2.70;1.37;;;;;;;5.06;100.00;152660.84;4986535;28;20461;-85
2024/01/05 05:15:34;;;;;;;2.53;1.03;;;;;;;5.05;100.00;152658.31;4968349;28;20488;-85
2024/01/05 05:18:00;;;;;;;2.00;1.30;;;;;;;5.05;100.00;152658.31;4969456;28;20449;-85
2024/01/05 05:20:27;;;;;;;2.23;0.93;;;;;;;5.05;100.00;152659.59;5003851;28;20975;-85
2024/01/05 05:22:53;;;;;;;2.30;1.30;;;;;;;5.03;100.00;152653.16;5001194;28;20540;-85
2024/01/05 05:25:20;;;;;;;1.37;0.90;;;;;;;5.04;100.00;152657.00;4972119;28;20541;-85
2024/01/05 05:27:46;;;;;;;1.63;1.10;;;;;;;5.03;100.00;152653.16;4991032;28;20461;-85
2024/01/05 05:30:13;;;;;;;1.83;1.03;;;;;;;4.99;100.00;152644.13;4992820;28;20508;-85
2024/01/05 05:32:44;;;;;;;1.53;1.10;;;;;;;4.99;100.00;152644.13;4978215;28;20442;-85
2024/01/05 05:35:10;;;;;;;2.10;0.90;;;;;;;4.98;100.00;152641.53;4966340;28;20484;-86
2024/01/05 05:37:37;;;;;;;1.77;1.07;;;;;;;4.98;100.00;152640.28;4990135;28;20453;-86
2024/01/05 05:40:05;;;;;;;1.03;0.70;;;;;;;4.97;100.00;152638.97;4990530;28;21034;-84
2024/01/05 05:42:31;;;;;;;1.30;1.00;;;;;;;5.00;100.00;152645.41;4972880;28;20509;-86
2024/01/05 05:44:58;;;;;;;1.87;1.10;;;;;;;5.02;100.00;152651.84;4979000;28;20460;-85
2024/01/05 05:47:24;;;;;;;1.80;1.00;;;;;;;5.00;100.00;152646.72;4972739;28;20608;-85
2024/01/05 05:49:53;;;;;;;1.67;1.13;;;;;;;5.01;100.00;152647.97;4982178;28;20875;-85
2024/01/05 05:52:19;;;;;;;1.40;0.80;;;;;;;4.99;100.00;152644.13;4989280;28;20892;-86
2024/01/05 05:54:46;;;;;;;3.77;1.40;;;;;;;4.96;100.00;152635.06;4991765;28;20531;-86
2024/01/05 05:57:13;;;;;;;2.70;1.20;;;;;;;4.96;100.00;152636.38;4954894;28;20450;-86
2024/01/05 05:59:39;;;;;;;2.13;1.30;;;;;;;4.93;100.00;152629.94;4964375;28;20852;-85
2024/01/05 06:02:06;;;;;;;1.97;0.80;;;;;;;4.95;100.00;152633.78;4983403;28;20539;-86
2024/01/05 06:04:32;;;;;;;1.90;1.37;;;;;;;4.95;100.00;152632.53;4987074;28;20469;-85
2024/01/05 06:07:00;;;;;;;2.27;0.90;;;;;;;4.96;100.00;152635.06;4979810;28;20469;-86
2024/01/05 06:09:27;;;;;;;1.20;0.80;;;;;;;4.99;100.00;152642.81;4982312;28;20476;-85
2024/01/05 06:11:53;;;;;;;1.63;1.00;;;;;;;4.99;100.00;152642.81;4977312;28;20680;-85
2024/01/05 06:14:20;;;;;;;2.30;1.10;;;;;;;4.99;100.00;152642.81;4981263;28;20907;-85
2024/01/05 06:16:47;;;;;;;1.50;1.00;;;;;;;5.01;100.00;152647.97;4978438;28;20455;-85
2024/01/05 06:19:13;;;;;;;3.17;1.10;;;;;;;5.00;100.00;152645.41;4970163;28;20963;-86
2024/01/05 06:21:40;;;;;;;2.37;0.90;;;;;;;5.02;100.00;152650.56;4963519;28;20838;-85
2024/01/05 06:24:07;;;;;;;1.60;1.07;;;;;;;5.06;100.00;152660.84;4969250;28;20957;-85
2024/01/05 06:26:36;;;;;;;2.77;2.33;;;;;;;5.09;100.00;152668.59;4978645;28;20445;-85
2024/01/05 06:29:02;;;;;;;2.67;1.83;;;;;;;5.13;100.00;152680.22;4979110;28;20457;-86
2024/01/05 06:31:29;;;;;;;2.30;1.47;;;;;;;5.16;100.00;152686.66;4968339;28;20458;-86
2024/01/05 06:33:55;;;;;;;1.67;1.00;;;;;;;5.15;100.00;152685.38;4979323;28;20819;-86
2024/01/05 06:36:23;;;;;;;2.10;1.23;;;;;;;5.16;100.00;152686.66;4971519;28;20470;-86
2024/01/05 06:38:49;;;;;;;1.90;1.00;;;;;;;5.14;100.00;152682.78;4979560;28;20492;-86
2024/01/05 06:41:17;;;;;;;1.20;0.90;;;;;;;5.14;100.00;152681.47;4972383;28;20570;-87
2024/01/05 06:43:44;;;;;;;2.23;1.50;;;;;;;5.12;100.00;152676.31;4976590;28;20551;-86
2024/01/05 06:46:10;;;;;;;2.00;1.00;;;;;;;5.12;100.00;152676.31;4980606;28;20458;-86
2024/01/05 06:48:37;;;;;;;4.47;1.97;;;;;;;5.12;100.00;152676.31;4976573;28;20470;-86
2024/01/05 06:51:04;;;;;;;2.67;1.00;;;;;;;5.14;100.00;152681.47;4976654;28;20516;-86
2024/01/05 06:53:30;;;;;;;1.50;1.13;;;;;;;5.14;100.00;152682.78;4979166;28;20556;-86
2024/01/05 06:55:57;;;;;;;2.23;1.17;;;;;;;5.15;100.00;152685.38;4976717;28;20511;-86
2024/01/05 06:58:27;;;;;;;3.70;1.50;;;;;;;5.18;100.00;152691.81;4975048;28;20462;-86
2024/01/05 07:00:57;;;;;;;3.17;1.30;;;;;;;5.19;100.00;152694.41;4977161;28;20952;-86
2024/01/05 07:03:24;;;;;;;2.40;1.07;;;;;;;5.18;100.00;152691.81;4974815;28;20466;-85
2024/01/05 07:05:50;;;;;;;1.53;0.90;;;;;;;5.19;100.00;152694.41;4980682;28;21027;-85
2024/01/05 07:08:17;;;;;;;2.90;1.50;;;;;;;5.17;100.00;152690.50;4978070;28;20611;-85
2024/01/05 07:10:44;;;;;;;1.63;1.00;;;;;;;5.15;100.00;152684.06;4976718;28;20460;-86
2024/01/05 07:13:10;;;;;;;1.63;1.00;;;;;;;5.10;100.00;152672.47;4978898;28;20520;-85
2024/01/05 07:15:38;;;;;;;2.33;0.90;;;;;;;5.07;100.00;152664.75;4981016;28;20478;-85
2024/01/05 07:18:05;;;;;;;3.50;1.67;;;;;;;5.07;100.00;152663.44;4977708;28;20445;-86
2024/01/05 07:20:32;;;;;;;1.70;1.00;;;;;;;5.07;100.00;152663.44;4988650;28;20540;-85
2024/01/05 07:23:00;;;;;;;2.67;1.37;;;;;;;5.06;100.00;152660.84;4969627;28;20470;-85
2024/01/05 07:25:26;;;;;;;2.80;1.43;;;;;;;5.04;100.00;152657.00;4968923;28;20520;-86
2024/01/05 07:27:53;;;;;;;2.70;1.30;;;;;;;5.02;100.00;152650.56;4982171;28;20800;-86
2024/01/05 07:30:19;;;;;;;2.63;1.30;;;;;;;5.02;100.00;152650.56;4982994;28;20896;-85
2024/01/05 07:32:47;;;;;;;2.20;1.30;;;;;;;5.00;100.00;152646.72;4962645;28;20457;-86
2024/01/05 07:35:16;;;;;;;1.70;1.20;;;;;;;4.99;100.00;152642.81;4979048;28;20477;-86
2024/01/05 07:37:43;;;;;;;3.90;1.23;;;;;;;4.97;100.00;152637.69;4967925;28;20462;-86
2024/01/05 07:40:11;;;;;;;3.03;1.50;;;;;;;4.98;100.00;152641.53;4978853;28;20453;-85
2024/01/05 07:42:37;;;;;;;4.10;1.67;;;;;;;5.00;100.00;152645.41;4963668;28;20489;-86
2024/01/05 07:45:06;;;;;;;1.30;1.07;;;;;;;5.02;100.00;152651.84;4967089;28;20461;-86
2024/01/05 07:47:33;;;;;;;2.53;1.33;;;;;;;5.04;100.00;152655.69;4977194;28;20992;-85
2024/01/05 07:50:02;;;;;;;1.67;1.20;;;;;;;5.05;100.00;152658.31;4967553;28;20481;-86
2024/01/05 07:52:30;;;;;;;2.20;1.13;;;;;;;5.06;100.00;152662.16;4970479;28;20446;-85
2024/01/05 07:54:56;;;;;;;2.20;1.23;;;;;;;5.07;100.00;152663.44;4965485;28;20461;-86
2024/01/05 07:57:23;;;;;;;1.40;1.00;;;;;;;5.06;100.00;152662.16;4967982;28;20842;-86
2024/01/05 07:59:49;;;;;;;2.40;1.10;;;;;;;5.07;100.00;152663.44;4978912;28;20469;-86
2024/01/05 08:02:16;;;;;;;2.47;1.33;;;;;;;5.06;100.00;152660.84;4965830;28;21096;-86
2024/01/05 08:04:43;;;;;;;2.10;1.00;;;;;;;5.06;100.00;152660.84;4959292;28;20927;-85
2024/01/05 08:07:12;;;;;;;3.50;1.60;;;;;;;5.06;100.00;152660.84;4975289;28;20458;-85
2024/01/05 08:09:41;;;;;;;2.37;1.60;;;;;;;5.07;100.00;152663.44;4977471;28;20442;-86
2024/01/05 08:12:08;;;;;;;2.10;1.50;;;;;;;5.06;100.00;152660.84;4967285;28;20458;-85
2024/01/05 08:14:34;;;;;;;2.33;1.37;;;;;;;5.06;100.00;152660.84;4978448;28;20508;-86
2024/01/05 08:17:01;;;;;;;1.73;1.30;;;;;;;5.05;100.00;152658.31;4949932;28;20827;-86
2024/01/05 08:19:27;;;;;;;4.10;1.60;;;;;;;5.06;100.00;152660.84;4964972;28;20462;-86
2024/01/05 08:21:56;;;;;;;3.10;1.60;;;;;;;5.09;100.00;152669.88;4975383;28;20446;-86
2024/01/05 08:24:25;;;;;;;1.70;1.60;;;;;;;5.10;100.00;152672.47;4976096;28;20900;-85
2024/01/05 08:26:52;;;;;;;4.13;1.83;;;;;;;5.14;100.00;152681.47;4978396;28;20456;-86
2024/01/05 08:29:21;;;;;;;1.90;1.40;;;;;;;5.15;100.00;152685.38;4977622;28;20450;-86
2024/01/05 08:31:48;;;;;;;1.60;1.30;;;;;;;5.19;100.00;152695.66;4976143;28;20442;-86
2024/01/05 08:34:14;;;;;;;7.43;1.53;;;;;;;5.21;100.00;152699.56;4961656;28;20441;-85
2024/01/05 08:36:41;;;;;;;1.97;1.43;;;;;;;5.27;100.00;152716.28;4966255;28;20841;-85
2024/01/05 08:39:08;;;;;;;1.70;1.33;;;;;;;5.32;100.00;152727.91;4960699;28;20817;-85
2024/01/05 08:41:35;;;;;;;3.00;1.97;;;;;;;5.34;100.00;152733.06;4988518;28;20859;-77
2024/01/05 08:44:02;;;;;;;2.53;1.47;;;;;;;5.35;100.00;152736.91;4998620;28;20536;-85
2024/01/05 08:46:29;;;;;;;3.20;1.40;;;;;;;5.38;100.00;152743.34;4977099;28;20456;-85
2024/01/05 08:48:55;;;;;;;2.03;1.40;;;;;;;5.40;100.00;152748.56;4981610;28;20461;-86
2024/01/05 08:51:42;;;;;;;2.50;1.60;;;;;;;5.43;100.00;152757.53;4994426;28;20452;-85
2024/01/05 08:54:09;;;;;;;2.53;1.70;;;;;;;5.45;100.00;152761.44;4993772;28;20713;-85
2024/01/05 08:56:37;;;;;;;2.53;1.73;;;;;;;5.46;100.00;152764.00;4981976;28;20568;-86
2024/01/05 08:59:04;;;;;;;2.00;1.20;;;;;;;5.50;100.00;152775.63;5015586;28;20464;-85
2024/01/05 09:01:32;;;;;;;3.90;1.17;;;;;;;5.55;100.00;152787.22;5002502;28;20447;-85
2024/01/05 09:03:58;;;;;;;1.70;1.40;;;;;;;5.59;100.00;152797.50;5001839;28;20492;-86
2024/01/05 09:06:25;;;;;;;2.07;1.50;;;;;;;5.65;100.00;152811.69;5001169;28;20448;-85
2024/01/05 09:08:52;;;;;;;2.27;1.30;;;;;;;5.68;100.00;152819.44;5007938;28;20457;-85
2024/01/05 09:11:18;;;;;;;3.70;1.70;;;;;;;5.67;100.00;152818.16;5006793;28;20920;-85
2024/01/05 09:13:46;;;;;;;3.57;1.80;;;;;;;5.65;100.00;152813.00;5000893;28;20456;-86
2024/01/05 09:16:13;;;;;;;1.90;1.27;;;;;;;5.64;100.00;152810.41;4999194;28;20484;-86
2024/01/05 09:18:40;;;;;;;2.47;1.50;;;;;;;5.64;100.00;152810.41;4990294;28;20484;-86
2024/01/05 09:21:07;;;;;;;4.20;1.53;;;;;;;5.63;100.00;152807.84;4972311;28;20456;-86
2024/01/05 09:23:33;;;;;;;2.30;1.80;;;;;;;5.63;100.00;152807.84;4991095;28;20488;-84
2024/01/05 09:26:00;;;;;;;4.03;1.50;;;;;;;5.65;100.00;152813.00;5002698;28;20458;-84
2024/01/05 09:28:26;;;;;;;2.03;1.50;;;;;;;5.64;100.00;152810.41;4972618;28;20461;-85
2024/01/05 09:30:54;;;;;;;3.00;1.90;;;;;;;5.66;100.00;152814.28;5002998;28;20471;-84
2024/01/05 09:33:21;;;;;;;4.67;2.07;;;;;;;5.65;100.00;152813.00;5000570;28;20454;-85
2024/01/05 09:35:47;;;;;;;1.87;1.43;;;;;;;5.65;100.00;152813.00;4997240;28;20833;-84
2024/01/05 09:38:14;;;;;;;2.73;2.00;;;;;;;5.70;100.00;152825.88;4998551;28;20464;-85
2024/01/05 09:40:41;;;;;;;2.50;1.80;;;;;;;5.74;100.00;152836.22;5000621;28;20486;-86
2024/01/05 09:43:07;;;;;;;2.27;1.20;;;;;;;5.75;100.00;152838.78;5000157;28;20515;-85
2024/01/05 09:45:34;;;;;;;2.40;1.60;;;;;;;5.78;100.00;152846.53;5000783;28;20544;-85
2024/01/05 09:48:02;;;;;;;2.50;1.33;;;;;;;5.82;100.00;152856.88;4980623;28;20457;-85
2024/01/05 09:50:31;;;;;;;2.53;1.70;;;;;;;5.86;100.00;152867.22;5001013;28;20463;-84
2024/01/05 09:53:14;;;;;;;3.60;1.80;;;;;;;5.92;100.00;152882.69;4986606;28;20452;-86
2024/01/05 09:55:41;;;;;;;3.33;1.50;;;;;;;5.95;100.00;152890.44;4998082;28;20535;-86
2024/01/05 09:58:07;;;;;;;2.20;1.40;;;;;;;5.97;100.00;152895.59;4988457;28;20916;-86
2024/01/05 10:00:34;;;;;;;1.83;1.40;;;;;;;6.04;100.00;152912.34;4986700;28;20830;-86
2024/01/05 10:03:07;;;;;;;3.37;1.60;;;;;;;6.07;100.00;152921.38;4998269;28;20472;-85
2024/01/05 10:05:36;;;;;;;2.33;1.50;;;;;;;6.11;100.00;152931.72;4986813;28;20531;-85
2024/01/05 10:08:04;;;;;;;3.50;2.10;;;;;;;6.17;100.00;152944.63;5000061;28;20846;-86
2024/01/05 10:10:47;;;;;;;3.00;1.63;;;;;;;6.23;100.00;152960.06;4984765;28;20854;-85
2024/01/05 10:13:14;;;;;;;3.60;2.17;;;;;;;6.25;100.00;152965.28;4987442;28;20458;-85
2024/01/05 10:15:53;;;;;;;1.97;1.30;;;;;;;6.26;100.00;152967.81;5001542;28;20481;-85
2024/01/05 10:18:21;;;;;;;2.07;1.67;;;;;;;6.29;100.00;152976.88;4987993;28;20455;-86
2024/01/05 10:20:48;;;;;;;3.70;1.90;;;;;;;6.30;100.00;152979.41;4997143;28;20660;-85
2024/01/05 10:23:15;;;;;;;5.17;2.23;;;;;;;6.30;100.00;152978.16;4999678;28;20461;-86
2024/01/05 10:25:41;;;;;;;3.10;1.87;;;;;;;6.31;100.00;152982.03;4999754;28;20459;-85
2024/01/05 10:28:23;;;;;;;3.60;1.63;;;;;;;6.33;100.00;152985.91;4996554;28;20461;-86
2024/01/05 10:30:49;;;;;;;2.87;1.80;;;;;;;6.35;100.00;152991.06;4988176;28;20444;-86
2024/01/05 10:33:18;;;;;;;3.80;1.70;;;;;;;6.38;100.00;152998.81;4997458;28;21130;-85
2024/01/05 10:35:45;;;;;;;2.80;2.10;;;;;;;6.38;100.00;153000.06;4979718;28;20983;-85
2024/01/05 10:38:13;;;;;;;4.73;2.27;;;;;;;6.40;100.00;153003.97;4998717;28;20992;-86
2024/01/05 10:40:40;;;;;;;2.13;1.53;;;;;;;6.43;100.00;153011.72;5000648;28;20480;-85
2024/01/05 10:43:08;;;;;;;4.00;2.13;;;;;;;6.43;100.00;153011.72;4999590;28;20854;-85
2024/01/05 10:45:36;;;;;;;2.67;1.57;;;;;;;6.43;100.00;153011.72;4987712;28;20465;-86
2024/01/05 10:48:04;;;;;;;2.50;1.83;;;;;;;6.50;100.00;153031.06;4980016;28;20900;-86
2024/01/05 10:50:34;;;;;;;4.27;1.80;;;;;;;6.57;100.00;153047.81;4998470;28;20484;-85
2024/01/05 10:53:03;;;;;;;7.33;2.13;;;;;;;6.60;100.00;153055.56;4987720;28;20480;-86
2024/01/05 10:55:32;;;;;;;2.50;1.43;;;;;;;6.66;100.00;153071.06;5004483;28;20457;-88
2024/01/05 10:57:59;;;;;;;5.23;1.80;;;;;;;6.67;100.00;153074.91;4987980;28;20492;-86
2024/01/05 11:00:26;;;;;;;2.60;1.60;;;;;;;6.69;100.00;153078.81;4982745;28;21154;-86
2024/01/05 11:02:55;;;;;;;4.93;2.47;;;;;;;6.71;100.00;153083.97;4996694;28;20507;-86
2024/01/05 11:05:24;;;;;;;3.47;2.03;;;;;;;6.75;100.00;153094.31;4998848;28;20453;-86
2024/01/05 11:07:51;;;;;;;3.40;1.50;;;;;;;6.77;100.00;153099.47;4986083;28;20976;-86
2024/01/05 11:10:26;;;;;;;2.23;1.40;;;;;;;6.78;100.00;153102.03;4997700;28;20873;-86
2024/01/05 11:13:21;;;;;;;3.23;2.00;;;;;;;6.82;100.00;153112.38;4987313;28;20506;-86
2024/01/05 11:15:57;;;;;;;3.23;1.83;;;;;;;6.86;100.00;153122.69;4988729;28;20554;-86
2024/01/05 11:18:45;;;;;;;3.90;2.10;;;;;;;6.95;100.00;153145.94;5003980;28;20449;-86
2024/01/05 11:21:13;;;;;;;5.63;2.23;;;;;;;7.02;100.00;153162.69;5005032;28;20464;-87
2024/01/05 11:23:42;;;;;;;5.50;2.83;;;;;;;7.04;100.00;153169.16;4996614;28;20577;-86
2024/01/05 11:26:32;;;;;;;4.33;2.63;;;;;;;7.09;100.00;153182.09;4990674;28;20452;-86